SWA1624 KDAL-KMSY
Flight info
| Callsign | SWA1624 |
|---|---|
| Flight time | 0h 56m |
| Altitude | 35000 |
| Route | LNDRE5 ZALEA SWEUP LSU AWDAD1 |
| Aircraft | B738/M-SADE2E3GIJ4RWZ/LB1D1 |
Departure
| Time | 2026-05-04 22:23 |
|---|---|
| Airport | Dallas Love Field (KDAL) |
Arrival
| Time | 2026-05-04 23:19 |
|---|---|
| Airport | Louis Armstrong New Orleans International Airport (KMSY) |
| Time | Latitude | Longitude | Altitude | Speed | Heading |
|---|---|---|---|---|---|
| 2026-05-04 22:07 | 32.84555 | -96.84872 | 492 ft | 0 kts | 0° |
| 2026-05-04 22:13 | 32.84542 | -96.84872 | 492 ft | 2 kts | 0° |
| 2026-05-04 22:13 | 32.84526 | -96.84872 | 492 ft | 2 kts | 1° |
| 2026-05-04 22:13 | 32.84512 | -96.84872 | 492 ft | 2 kts | 1° |
| 2026-05-04 22:13 | 32.84498 | -96.84872 | 492 ft | 1 kts | 2° |
| 2026-05-04 22:14 | 32.84504 | -96.84869 | 492 ft | 1 kts | 40° |
| 2026-05-04 22:14 | 32.84506 | -96.84850 | 492 ft | 4 kts | 93° |
| 2026-05-04 22:14 | 32.84506 | -96.84791 | 492 ft | 7 kts | 90° |
| 2026-05-04 22:14 | 32.84505 | -96.84727 | 492 ft | 7 kts | 90° |
| 2026-05-04 22:15 | 32.84505 | -96.84689 | 492 ft | 2 kts | 90° |
| 2026-05-04 22:15 | 32.84505 | -96.84686 | 492 ft | 0 kts | 90° |
| 2026-05-04 22:16 | 32.84505 | -96.84670 | 492 ft | 4 kts | 88° |
| 2026-05-04 22:17 | 32.84528 | -96.84612 | 492 ft | 10 kts | 49° |
| 2026-05-04 22:17 | 32.84582 | -96.84556 | 492 ft | 9 kts | 5° |
| 2026-05-04 22:17 | 32.84636 | -96.84598 | 492 ft | 10 kts | 316° |
| 2026-05-04 22:17 | 32.84692 | -96.84662 | 492 ft | 12 kts | 315° |
| 2026-05-04 22:18 | 32.84758 | -96.84740 | 492 ft | 17 kts | 315° |
| 2026-05-04 22:18 | 32.84816 | -96.84807 | 492 ft | 17 kts | 315° |
| 2026-05-04 22:18 | 32.84900 | -96.84904 | 492 ft | 15 kts | 315° |
| 2026-05-04 22:18 | 32.84974 | -96.84991 | 492 ft | 14 kts | 316° |
| 2026-05-04 22:19 | 32.85051 | -96.85079 | 492 ft | 16 kts | 315° |
| 2026-05-04 22:19 | 32.85141 | -96.85182 | 492 ft | 19 kts | 315° |
| 2026-05-04 22:19 | 32.85241 | -96.85299 | 492 ft | 21 kts | 316° |
| 2026-05-04 22:19 | 32.85350 | -96.85426 | 492 ft | 21 kts | 315° |
| 2026-05-04 22:20 | 32.85450 | -96.85541 | 492 ft | 19 kts | 315° |
| 2026-05-04 22:20 | 32.85541 | -96.85647 | 492 ft | 17 kts | 315° |
| 2026-05-04 22:20 | 32.85616 | -96.85735 | 492 ft | 10 kts | 316° |
| 2026-05-04 22:20 | 32.85650 | -96.85747 | 492 ft | 1 kts | 22° |
| 2026-05-04 22:21 | 32.85651 | -96.85746 | 492 ft | 1 kts | 24° |
| 2026-05-04 22:21 | 32.85672 | -96.85729 | 492 ft | 6 kts | 43° |
| 2026-05-04 22:22 | 32.85710 | -96.85684 | 492 ft | 6 kts | 55° |
| 2026-05-04 22:22 | 32.85696 | -96.85643 | 492 ft | 5 kts | 137° |
| 2026-05-04 22:22 | 32.85607 | -96.85541 | 492 ft | 47 kts | 136° |
| 2026-05-04 22:22 | 32.85188 | -96.85055 | 492 ft | 118 kts | 136° |
| 2026-05-04 22:23 | 32.84460 | -96.84208 | 510 ft | 174 kts | 136° |
| 2026-05-04 22:23 | 32.83595 | -96.83204 | 1183 ft | 177 kts | 137° |
| 2026-05-04 22:23 | 32.82695 | -96.82164 | 1825 ft | 184 kts | 138° |
| 2026-05-04 22:23 | 32.81725 | -96.81158 | 2405 ft | 186 kts | 145° |
| 2026-05-04 22:24 | 32.80675 | -96.80138 | 2772 ft | 206 kts | 146° |
| 2026-05-04 22:24 | 32.79559 | -96.79050 | 3431 ft | 210 kts | 145° |
| 2026-05-04 22:24 | 32.78464 | -96.77885 | 4043 ft | 219 kts | 143° |
| 2026-05-04 22:24 | 32.77328 | -96.76605 | 4517 ft | 234 kts | 142° |
| 2026-05-04 22:25 | 32.76088 | -96.75236 | 4942 ft | 252 kts | 142° |
| 2026-05-04 22:25 | 32.74818 | -96.73778 | 5568 ft | 263 kts | 140° |
| 2026-05-04 22:25 | 32.73498 | -96.72239 | 6306 ft | 268 kts | 141° |
| 2026-05-04 22:25 | 32.72154 | -96.70688 | 7017 ft | 275 kts | 141° |
| 2026-05-04 22:26 | 32.70782 | -96.69096 | 7742 ft | 281 kts | 140° |
| 2026-05-04 22:26 | 32.69394 | -96.67433 | 8477 ft | 288 kts | 136° |
| 2026-05-04 22:26 | 32.68321 | -96.65375 | 9171 ft | 303 kts | 110° |
| 2026-05-04 22:26 | 32.68093 | -96.62884 | 9935 ft | 311 kts | 89° |
| 2026-05-04 22:27 | 32.68156 | -96.60294 | 10598 ft | 321 kts | 89° |
| 2026-05-04 22:27 | 32.68135 | -96.57542 | 10883 ft | 344 kts | 91° |
| 2026-05-04 22:27 | 32.68079 | -96.54644 | 11503 ft | 355 kts | 90° |
| 2026-05-04 22:27 | 32.68151 | -96.51712 | 12272 ft | 360 kts | 83° |
| 2026-05-04 22:28 | 32.68422 | -96.48766 | 13036 ft | 365 kts | 81° |
| 2026-05-04 22:28 | 32.68695 | -96.45757 | 13805 ft | 371 kts | 82° |
| 2026-05-04 22:28 | 32.68942 | -96.42658 | 14577 ft | 376 kts | 82° |
| 2026-05-04 22:28 | 32.69183 | -96.39585 | 15335 ft | 382 kts | 82° |
| 2026-05-04 22:29 | 32.69434 | -96.36414 | 16093 ft | 387 kts | 82° |
| 2026-05-04 22:29 | 32.69558 | -96.33167 | 16800 ft | 394 kts | 89° |
| 2026-05-04 22:29 | 32.69413 | -96.29943 | 17485 ft | 400 kts | 93° |
| 2026-05-04 22:29 | 32.69189 | -96.26618 | 18161 ft | 405 kts | 93° |
| 2026-05-04 22:30 | 32.68982 | -96.23264 | 18813 ft | 410 kts | 92° |
| 2026-05-04 22:30 | 32.68776 | -96.19888 | 19475 ft | 414 kts | 92° |
| 2026-05-04 22:30 | 32.68556 | -96.16464 | 20102 ft | 419 kts | 92° |
| 2026-05-04 22:30 | 32.68327 | -96.13008 | 20711 ft | 424 kts | 92° |
| 2026-05-04 22:31 | 32.68092 | -96.09486 | 21336 ft | 428 kts | 92° |
| 2026-05-04 22:31 | 32.67858 | -96.05985 | 21928 ft | 431 kts | 92° |
| 2026-05-04 22:31 | 32.67617 | -96.02385 | 22481 ft | 436 kts | 92° |
| 2026-05-04 22:31 | 32.67376 | -95.98809 | 23039 ft | 440 kts | 92° |
| 2026-05-04 22:32 | 32.67128 | -95.95160 | 23584 ft | 444 kts | 92° |
| 2026-05-04 22:32 | 32.66876 | -95.91483 | 24098 ft | 449 kts | 92° |
| 2026-05-04 22:32 | 32.66624 | -95.87801 | 24567 ft | 454 kts | 91° |
| 2026-05-04 22:32 | 32.66364 | -95.84032 | 25034 ft | 459 kts | 91° |
| 2026-05-04 22:33 | 32.66101 | -95.80242 | 25487 ft | 464 kts | 91° |
| 2026-05-04 22:33 | 32.65834 | -95.76409 | 25921 ft | 469 kts | 91° |
| 2026-05-04 22:33 | 32.65565 | -95.72547 | 26354 ft | 473 kts | 91° |
| 2026-05-04 22:33 | 32.65291 | -95.68652 | 26764 ft | 478 kts | 91° |
| 2026-05-04 22:34 | 32.65011 | -95.64687 | 27182 ft | 483 kts | 91° |
| 2026-05-04 22:34 | 32.64730 | -95.60711 | 27589 ft | 487 kts | 91° |
| 2026-05-04 22:34 | 32.64446 | -95.56721 | 27972 ft | 492 kts | 90° |
| 2026-05-04 22:34 | 32.64156 | -95.52664 | 28352 ft | 496 kts | 90° |
| 2026-05-04 22:35 | 32.63861 | -95.48567 | 28736 ft | 500 kts | 90° |
| 2026-05-04 22:35 | 32.63565 | -95.44479 | 29102 ft | 504 kts | 90° |
| 2026-05-04 22:35 | 32.63261 | -95.40282 | 29487 ft | 508 kts | 90° |
| 2026-05-04 22:35 | 32.62958 | -95.36118 | 29835 ft | 512 kts | 90° |
| 2026-05-04 22:36 | 32.62647 | -95.31860 | 30161 ft | 517 kts | 90° |
| 2026-05-04 22:36 | 32.62333 | -95.27595 | 30481 ft | 520 kts | 91° |
| 2026-05-04 22:36 | 32.62018 | -95.23336 | 30797 ft | 524 kts | 90° |
| 2026-05-04 22:36 | 32.61700 | -95.19065 | 31139 ft | 526 kts | 90° |
| 2026-05-04 22:37 | 32.61377 | -95.14733 | 31447 ft | 530 kts | 90° |
| 2026-05-04 22:37 | 32.61049 | -95.10352 | 31749 ft | 533 kts | 90° |
| 2026-05-04 22:37 | 32.60717 | -95.05939 | 32053 ft | 536 kts | 90° |
| 2026-05-04 22:37 | 32.60384 | -95.01585 | 32563 ft | 534 kts | 90° |
| 2026-05-04 22:38 | 32.60048 | -94.97192 | 32985 ft | 533 kts | 90° |
| 2026-05-04 22:38 | 32.59713 | -94.92808 | 33349 ft | 534 kts | 89° |
| 2026-05-04 22:38 | 32.59381 | -94.88454 | 33692 ft | 535 kts | 89° |
| 2026-05-04 22:38 | 32.59027 | -94.84055 | 34014 ft | 537 kts | 90° |
| 2026-05-04 22:39 | 32.58513 | -94.79688 | 34360 ft | 540 kts | 95° |
| 2026-05-04 22:39 | 32.57702 | -94.75324 | 34702 ft | 544 kts | 102° |
| 2026-05-04 22:39 | 32.56597 | -94.71021 | 34909 ft | 549 kts | 105° |
| 2026-05-04 22:40 | 32.54162 | -94.62309 | 34899 ft | 563 kts | 105° |
| 2026-05-04 22:40 | 32.51720 | -94.53417 | 34899 ft | 571 kts | 105° |
| 2026-05-04 22:41 | 32.49229 | -94.44559 | 34899 ft | 569 kts | 105° |
| 2026-05-04 22:41 | 32.46720 | -94.35718 | 34899 ft | 568 kts | 105° |
| 2026-05-04 22:42 | 32.44186 | -94.26811 | 34900 ft | 568 kts | 106° |
| 2026-05-04 22:42 | 32.41656 | -94.17959 | 34904 ft | 569 kts | 106° |
| 2026-05-04 22:43 | 32.39115 | -94.09106 | 34912 ft | 569 kts | 106° |
| 2026-05-04 22:43 | 32.36575 | -94.00279 | 34920 ft | 570 kts | 106° |
| 2026-05-04 22:44 | 32.34026 | -93.91451 | 34925 ft | 571 kts | 106° |
| 2026-05-04 22:44 | 32.31457 | -93.82577 | 34926 ft | 571 kts | 106° |
| 2026-05-04 22:45 | 32.28885 | -93.73724 | 34926 ft | 570 kts | 106° |
| 2026-05-04 22:45 | 32.25030 | -93.60501 | 34926 ft | 569 kts | 106° |
| 2026-05-04 22:46 | 32.22451 | -93.51691 | 34926 ft | 568 kts | 105° |
| 2026-05-04 22:46 | 32.19852 | -93.42850 | 34926 ft | 569 kts | 106° |
| 2026-05-04 22:47 | 32.17240 | -93.34059 | 34927 ft | 569 kts | 107° |
| 2026-05-04 22:47 | 32.14623 | -93.25277 | 34938 ft | 568 kts | 106° |
| 2026-05-04 22:48 | 32.12008 | -93.16515 | 34972 ft | 567 kts | 106° |
| 2026-05-04 22:48 | 32.09394 | -93.07778 | 34970 ft | 567 kts | 106° |
| 2026-05-04 22:49 | 32.06763 | -92.99016 | 34963 ft | 567 kts | 106° |
| 2026-05-04 22:49 | 32.04125 | -92.90250 | 34956 ft | 567 kts | 106° |
| 2026-05-04 22:50 | 32.01477 | -92.81480 | 34952 ft | 568 kts | 106° |
| 2026-05-04 22:50 | 31.98627 | -92.72851 | 34948 ft | 570 kts | 114° |
| 2026-05-04 22:51 | 31.94165 | -92.65162 | 34948 ft | 568 kts | 137° |
| 2026-05-04 22:51 | 31.88171 | -92.59217 | 34954 ft | 566 kts | 146° |
| 2026-05-04 22:52 | 31.82040 | -92.53385 | 34955 ft | 566 kts | 144° |
| 2026-05-04 22:52 | 31.75962 | -92.47557 | 34966 ft | 566 kts | 145° |
| 2026-05-04 22:53 | 31.69851 | -92.41780 | 34976 ft | 565 kts | 145° |
| 2026-05-04 22:53 | 31.63744 | -92.36024 | 34981 ft | 566 kts | 145° |
| 2026-05-04 22:54 | 31.57620 | -92.30265 | 34981 ft | 565 kts | 146° |
| 2026-05-04 22:54 | 31.51512 | -92.24535 | 34981 ft | 565 kts | 146° |
| 2026-05-04 22:55 | 31.45409 | -92.18821 | 34981 ft | 564 kts | 146° |
| 2026-05-04 22:55 | 31.39262 | -92.13076 | 34985 ft | 564 kts | 146° |
| 2026-05-04 22:56 | 31.33190 | -92.07413 | 34996 ft | 563 kts | 146° |
| 2026-05-04 22:56 | 31.27085 | -92.01726 | 35007 ft | 562 kts | 146° |
| 2026-05-04 22:57 | 31.20988 | -91.96058 | 35018 ft | 561 kts | 146° |
| 2026-05-04 22:57 | 31.14891 | -91.90399 | 35020 ft | 559 kts | 146° |
| 2026-05-04 22:58 | 31.11842 | -91.87573 | 34454 ft | 560 kts | 146° |
| 2026-05-04 22:58 | 31.08828 | -91.84783 | 33637 ft | 561 kts | 146° |
| 2026-05-04 22:58 | 31.05761 | -91.81944 | 32776 ft | 562 kts | 146° |
| 2026-05-04 22:58 | 31.02683 | -91.79102 | 31882 ft | 561 kts | 146° |
| 2026-05-04 22:59 | 30.99657 | -91.76311 | 30976 ft | 561 kts | 145° |
| 2026-05-04 22:59 | 30.96640 | -91.73528 | 30237 ft | 555 kts | 145° |
| 2026-05-04 22:59 | 30.93642 | -91.70757 | 29568 ft | 549 kts | 145° |
| 2026-05-04 22:59 | 30.90688 | -91.68026 | 28889 ft | 536 kts | 145° |
| 2026-05-04 23:00 | 30.87789 | -91.65349 | 28220 ft | 523 kts | 145° |
| 2026-05-04 23:00 | 30.84998 | -91.62777 | 27569 ft | 511 kts | 145° |
| 2026-05-04 23:00 | 30.82254 | -91.60256 | 26926 ft | 500 kts | 145° |
| 2026-05-04 23:00 | 30.79544 | -91.57768 | 26284 ft | 488 kts | 145° |
| 2026-05-04 23:01 | 30.76910 | -91.55353 | 25657 ft | 478 kts | 145° |
| 2026-05-04 23:01 | 30.74329 | -91.52985 | 25036 ft | 469 kts | 145° |
| 2026-05-04 23:01 | 30.71796 | -91.50663 | 24424 ft | 460 kts | 145° |
| 2026-05-04 23:01 | 30.69319 | -91.48391 | 23824 ft | 451 kts | 146° |
| 2026-05-04 23:02 | 30.66894 | -91.46171 | 23230 ft | 442 kts | 146° |
| 2026-05-04 23:02 | 30.64488 | -91.43975 | 22645 ft | 444 kts | 145° |
| 2026-05-04 23:02 | 30.62066 | -91.41766 | 22043 ft | 439 kts | 145° |
| 2026-05-04 23:02 | 30.59701 | -91.39604 | 21455 ft | 430 kts | 145° |
| 2026-05-04 23:03 | 30.57369 | -91.37472 | 20875 ft | 424 kts | 145° |
| 2026-05-04 23:03 | 30.55025 | -91.35337 | 20286 ft | 427 kts | 145° |
| 2026-05-04 23:03 | 30.52724 | -91.33240 | 19696 ft | 418 kts | 145° |
| 2026-05-04 23:03 | 30.50489 | -91.31201 | 19123 ft | 409 kts | 145° |
| 2026-05-04 23:04 | 30.48264 | -91.29173 | 18640 ft | 408 kts | 145° |
| 2026-05-04 23:04 | 30.46042 | -91.27122 | 18326 ft | 409 kts | 144° |
| 2026-05-04 23:04 | 30.43830 | -91.25050 | 18028 ft | 405 kts | 144° |
| 2026-05-04 23:04 | 30.41653 | -91.23015 | 17467 ft | 397 kts | 144° |
| 2026-05-04 23:05 | 30.39517 | -91.21029 | 16869 ft | 395 kts | 144° |
| 2026-05-04 23:05 | 30.37401 | -91.19066 | 16294 ft | 392 kts | 144° |
| 2026-05-04 23:05 | 30.35286 | -91.17100 | 15718 ft | 384 kts | 144° |
| 2026-05-04 23:05 | 30.33243 | -91.15198 | 15167 ft | 376 kts | 144° |
| 2026-05-04 23:06 | 30.31191 | -91.13296 | 14616 ft | 379 kts | 144° |
| 2026-05-04 23:06 | 30.29162 | -91.11415 | 14056 ft | 372 kts | 144° |
| 2026-05-04 23:06 | 30.27170 | -91.09566 | 13508 ft | 364 kts | 144° |
| 2026-05-04 23:06 | 30.25216 | -91.07755 | 12974 ft | 361 kts | 143° |
| 2026-05-04 23:07 | 30.23250 | -91.05936 | 12423 ft | 360 kts | 143° |
| 2026-05-04 23:07 | 30.21339 | -91.04166 | 11891 ft | 352 kts | 143° |
| 2026-05-04 23:07 | 30.19456 | -91.02421 | 11361 ft | 344 kts | 143° |
| 2026-05-04 23:07 | 30.17588 | -91.00696 | 10854 ft | 345 kts | 143° |
| 2026-05-04 23:08 | 30.15731 | -90.98982 | 10479 ft | 332 kts | 143° |
| 2026-05-04 23:08 | 30.13994 | -90.97374 | 10289 ft | 310 kts | 143° |
| 2026-05-04 23:08 | 30.12471 | -90.95756 | 10103 ft | 293 kts | 130° |
| 2026-05-04 23:08 | 30.11599 | -90.93703 | 9881 ft | 284 kts | 104° |
| 2026-05-04 23:09 | 30.11384 | -90.91428 | 9527 ft | 286 kts | 95° |
| 2026-05-04 23:09 | 30.11209 | -90.89167 | 9179 ft | 284 kts | 97° |
| 2026-05-04 23:09 | 30.11010 | -90.86917 | 8846 ft | 281 kts | 97° |
| 2026-05-04 23:09 | 30.10826 | -90.84657 | 8515 ft | 279 kts | 97° |
| 2026-05-04 23:10 | 30.10648 | -90.82439 | 8190 ft | 277 kts | 97° |
| 2026-05-04 23:10 | 30.10472 | -90.80247 | 7866 ft | 276 kts | 97° |
| 2026-05-04 23:10 | 30.10294 | -90.78022 | 7536 ft | 274 kts | 97° |
| 2026-05-04 23:10 | 30.10121 | -90.75856 | 7291 ft | 270 kts | 97° |
| 2026-05-04 23:11 | 30.09949 | -90.73713 | 7202 ft | 270 kts | 97° |
| 2026-05-04 23:11 | 30.09775 | -90.71548 | 7114 ft | 271 kts | 97° |
| 2026-05-04 23:11 | 30.09520 | -90.69369 | 6919 ft | 271 kts | 105° |
| 2026-05-04 23:11 | 30.09010 | -90.67313 | 6535 ft | 262 kts | 109° |
| 2026-05-04 23:12 | 30.08521 | -90.65331 | 6189 ft | 253 kts | 107° |
| 2026-05-04 23:12 | 30.08072 | -90.63437 | 5865 ft | 236 kts | 107° |
| 2026-05-04 23:12 | 30.07651 | -90.61666 | 5553 ft | 220 kts | 108° |
| 2026-05-04 23:12 | 30.07254 | -90.59990 | 5274 ft | 217 kts | 108° |
| 2026-05-04 23:13 | 30.06856 | -90.58308 | 4980 ft | 218 kts | 107° |
| 2026-05-04 23:13 | 30.06461 | -90.56631 | 4690 ft | 216 kts | 107° |
| 2026-05-04 23:13 | 30.06069 | -90.54963 | 4402 ft | 215 kts | 107° |
| 2026-05-04 23:13 | 30.05679 | -90.53302 | 4114 ft | 214 kts | 107° |
| 2026-05-04 23:14 | 30.05266 | -90.51649 | 3855 ft | 214 kts | 108° |
| 2026-05-04 23:14 | 30.04860 | -90.50001 | 3543 ft | 212 kts | 107° |
| 2026-05-04 23:14 | 30.04470 | -90.48364 | 3275 ft | 208 kts | 107° |
| 2026-05-04 23:14 | 30.04099 | -90.46790 | 3022 ft | 200 kts | 107° |
| 2026-05-04 23:15 | 30.03742 | -90.45272 | 2781 ft | 191 kts | 107° |
| 2026-05-04 23:15 | 30.03398 | -90.43805 | 2549 ft | 187 kts | 107° |
| 2026-05-04 23:15 | 30.03064 | -90.42381 | 2319 ft | 182 kts | 107° |
| 2026-05-04 23:15 | 30.02746 | -90.41016 | 2113 ft | 172 kts | 107° |
| 2026-05-04 23:16 | 30.02444 | -90.39743 | 1982 ft | 153 kts | 107° |
| 2026-05-04 23:16 | 30.02158 | -90.38568 | 1647 ft | 151 kts | 108° |
| 2026-05-04 23:16 | 30.01882 | -90.37444 | 1380 ft | 141 kts | 108° |
| 2026-05-04 23:16 | 30.01635 | -90.36399 | 1324 ft | 137 kts | 107° |
| 2026-05-04 23:17 | 30.01391 | -90.35315 | 1272 ft | 141 kts | 107° |
| 2026-05-04 23:17 | 30.01143 | -90.34216 | 1085 ft | 140 kts | 107° |
| 2026-05-04 23:17 | 30.00883 | -90.33144 | 958 ft | 138 kts | 109° |
| 2026-05-04 23:17 | 30.00588 | -90.32078 | 810 ft | 140 kts | 109° |
| 2026-05-04 23:18 | 30.00342 | -90.31001 | 603 ft | 137 kts | 105° |
| 2026-05-04 23:18 | 30.00098 | -90.29951 | 379 ft | 135 kts | 109° |
| 2026-05-04 23:18 | 29.99841 | -90.28901 | 181 ft | 135 kts | 108° |
| 2026-05-04 23:18 | 29.99591 | -90.27876 | 21 ft | 130 kts | 107° |
| 2026-05-04 23:19 | 29.99390 | -90.27042 | 9 ft | 77 kts | 107° |
| 2026-05-04 23:19 | 29.99298 | -90.26662 | 9 ft | 26 kts | 105° |
| 2026-05-04 23:19 | 29.99276 | -90.26501 | 9 ft | 16 kts | 60° |
| 2026-05-04 23:19 | 29.99368 | -90.26453 | 9 ft | 13 kts | 14° |
| 2026-05-04 23:20 | 29.99445 | -90.26405 | 9 ft | 12 kts | 63° |
| 2026-05-04 23:20 | 29.99439 | -90.26299 | 9 ft | 13 kts | 106° |
| 2026-05-04 23:20 | 29.99415 | -90.26200 | 9 ft | 11 kts | 105° |
| 2026-05-04 23:20 | 29.99392 | -90.26103 | 9 ft | 14 kts | 105° |
| 2026-05-04 23:21 | 29.99363 | -90.25981 | 9 ft | 15 kts | 105° |
| 2026-05-04 23:21 | 29.99335 | -90.25879 | 9 ft | 10 kts | 127° |
| 2026-05-04 23:21 | 29.99273 | -90.25846 | 9 ft | 9 kts | 165° |
| 2026-05-04 23:21 | 29.99235 | -90.25802 | 9 ft | 7 kts | 107° |
| 2026-05-04 23:22 | 29.99219 | -90.25729 | 9 ft | 12 kts | 99° |
| 2026-05-04 23:22 | 29.99211 | -90.25617 | 9 ft | 13 kts | 94° |
| 2026-05-04 23:22 | 29.99237 | -90.25567 | 9 ft | 7 kts | 14° |
| 2026-05-04 23:22 | 29.99305 | -90.25562 | 9 ft | 11 kts | 2° |
| 2026-05-04 23:23 | 29.99375 | -90.25556 | 9 ft | 7 kts | 4° |
| 2026-05-04 23:23 | 29.99408 | -90.25581 | 9 ft | 5 kts | 292° |
| 2026-05-04 23:23 | 29.99416 | -90.25610 | 9 ft | 0 kts | 286° |
| 2026-05-04 23:23 | 29.99416 | -90.25612 | 9 ft | 0 kts | 286° |